sensor_id;sensor_type;location;lat;lon;timestamp;pressure;altitude;pressure_sealevel;temperature;humidity
46087;BME280;31824;49.648;8.640;2023-06-22T00:00:39;100291.38;;;23.48;100.00
46087;BME280;31824;49.648;8.640;2023-06-22T00:03:44;100304.84;;;23.50;100.00
46087;BME280;31824;49.648;8.640;2023-06-22T00:07:14;100299.53;;;23.51;100.00
46087;BME280;31824;49.648;8.640;2023-06-22T00:10:19;100299.41;;;23.48;100.00
46087;BME280;31824;49.648;8.640;2023-06-22T00:13:21;100307.25;;;23.65;100.00
46087;BME280;31824;49.648;8.640;2023-06-22T00:16:25;100306.53;;;23.69;100.00
46087;BME280;31824;49.648;8.640;2023-06-22T00:19:27;100297.13;;;23.57;100.00
46087;BME280;31824;49.648;8.640;2023-06-22T00:22:57;100314.91;;;23.55;100.00
46087;BME280;31824;49.648;8.640;2023-06-22T00:26:06;100331.66;;;23.50;100.00
46087;BME280;31824;49.648;8.640;2023-06-22T00:29:09;100358.63;;;23.53;100.00
46087;BME280;31824;49.648;8.640;2023-06-22T00:32:14;100378.75;;;23.43;100.00
46087;BME280;31824;49.648;8.640;2023-06-22T00:35:16;100407.84;;;23.34;100.00
46087;BME280;31824;49.648;8.640;2023-06-22T00:38:24;100423.03;;;23.14;100.00
46087;BME280;31824;49.648;8.640;2023-06-22T00:41:27;100435.78;;;23.00;100.00
46087;BME280;31824;49.648;8.640;2023-06-22T00:44:54;100428.66;;;23.00;100.00
46087;BME280;31824;49.648;8.640;2023-06-22T00:47:59;100439.16;;;22.96;100.00
46087;BME280;31824;49.648;8.640;2023-06-22T00:51:03;100478.34;;;22.93;100.00
46087;BME280;31824;49.648;8.640;2023-06-22T00:54:05;100560.31;;;23.08;100.00
46087;BME280;31824;49.648;8.640;2023-06-22T00:57:08;100628.91;;;23.22;100.00
46087;BME280;31824;49.648;8.640;2023-06-22T01:00:13;100665.53;;;23.22;100.00
46087;BME280;31824;49.648;8.640;2023-06-22T01:03:44;100677.84;;;23.18;100.00
46087;BME280;31824;49.648;8.640;2023-06-22T01:07:07;100544.53;;;22.76;100.00
46087;BME280;31824;49.648;8.640;2023-06-22T01:10:19;100461.25;;;22.72;100.00
46087;BME280;31824;49.648;8.640;2023-06-22T01:13:32;100434.28;;;22.49;100.00
46087;BME280;31824;49.648;8.640;2023-06-22T01:16:40;100411.31;;;22.35;100.00
46087;BME280;31824;49.648;8.640;2023-06-22T01:19:47;100344.44;;;21.81;100.00
46087;BME280;31824;49.648;8.640;2023-06-22T01:23:05;100281.44;;;21.68;100.00
46087;BME280;31824;49.648;8.640;2023-06-22T01:26:16;100275.38;;;21.72;100.00
46087;BME280;31824;49.648;8.640;2023-06-22T01:29:47;100279.06;;;21.56;100.00
46087;BME280;31824;49.648;8.640;2023-06-22T01:32:53;100302.28;;;21.57;100.00
46087;BME280;31824;49.648;8.640;2023-06-22T01:36:00;100324.09;;;21.66;100.00
46087;BME280;31824;49.648;8.640;2023-06-22T01:39:05;100320.41;;;21.46;100.00
46087;BME280;31824;49.648;8.640;2023-06-22T01:42:08;100328.38;;;21.45;100.00
46087;BME280;31824;49.648;8.640;2023-06-22T01:45:37;100341.72;;;21.10;100.00
46087;BME280;31824;49.648;8.640;2023-06-22T01:48:40;100358.59;;;21.44;100.00
46087;BME280;31824;49.648;8.640;2023-06-22T01:51:43;100347.44;;;21.52;100.00
46087;BME280;31824;49.648;8.640;2023-06-22T01:54:45;100368.81;;;21.52;100.00
46087;BME280;31824;49.648;8.640;2023-06-22T01:57:47;100362.81;;;21.22;100.00
46087;BME280;31824;49.648;8.640;2023-06-22T02:00:56;100365.09;;;21.14;100.00
46087;BME280;31824;49.648;8.640;2023-06-22T02:04:04;100372.25;;;20.81;100.00
46087;BME280;31824;49.648;8.640;2023-06-22T02:07:41;100387.50;;;21.00;100.00
46087;BME280;31824;49.648;8.640;2023-06-22T02:10:48;100390.72;;;20.94;100.00
46087;BME280;31824;49.648;8.640;2023-06-22T02:13:52;100389.00;;;20.95;100.00
46087;BME280;31824;49.648;8.640;2023-06-22T02:16:57;100389.59;;;20.89;100.00
46087;BME280;31824;49.648;8.640;2023-06-22T02:20:02;100383.72;;;20.47;100.00
46087;BME280;31824;49.648;8.640;2023-06-22T02:23:10;100390.19;;;20.52;100.00
46087;BME280;31824;49.648;8.640;2023-06-22T02:26:13;100387.53;;;20.52;100.00
46087;BME280;31824;49.648;8.640;2023-06-22T02:29:15;100373.09;;;20.32;100.00
46087;BME280;31824;49.648;8.640;2023-06-22T02:32:19;100379.72;;;20.23;100.00
46087;BME280;31824;49.648;8.640;2023-06-22T02:35:22;100364.38;;;20.19;100.00
46087;BME280;31824;49.648;8.640;2023-06-22T02:38:26;100368.28;;;20.10;100.00
46087;BME280;31824;49.648;8.640;2023-06-22T02:41:29;100357.56;;;20.24;100.00
46087;BME280;31824;49.648;8.640;2023-06-22T02:44:32;100365.56;;;20.41;100.00
46087;BME280;31824;49.648;8.640;2023-06-22T02:47:36;100371.78;;;20.40;100.00
46087;BME280;31824;49.648;8.640;2023-06-22T02:50:39;100367.53;;;20.12;100.00
46087;BME280;31824;49.648;8.640;2023-06-22T02:53:42;100369.25;;;20.27;100.00
46087;BME280;31824;49.648;8.640;2023-06-22T02:56:48;100356.00;;;20.45;100.00
46087;BME280;31824;49.648;8.640;2023-06-22T02:59:50;100344.56;;;20.31;100.00
46087;BME280;31824;49.648;8.640;2023-06-22T03:02:54;100335.38;;;20.26;100.00
46087;BME280;31824;49.648;8.640;2023-06-22T03:05:57;100320.06;;;20.38;100.00
46087;BME280;31824;49.648;8.640;2023-06-22T03:09:25;100336.56;;;20.47;100.00
46087;BME280;31824;49.648;8.640;2023-06-22T03:12:27;100331.09;;;20.44;100.00
46087;BME280;31824;49.648;8.640;2023-06-22T03:15:29;100329.97;;;20.57;100.00
46087;BME280;31824;49.648;8.640;2023-06-22T03:18:35;100322.13;;;20.60;100.00
46087;BME280;31824;49.648;8.640;2023-06-22T03:21:37;100324.94;;;20.78;100.00
46087;BME280;31824;49.648;8.640;2023-06-22T03:24:44;100321.91;;;20.72;100.00
46087;BME280;31824;49.648;8.640;2023-06-22T03:27:46;100322.56;;;20.68;100.00
46087;BME280;31824;49.648;8.640;2023-06-22T03:30:50;100321.56;;;20.66;100.00
46087;BME280;31824;49.648;8.640;2023-06-22T03:33:53;100323.47;;;20.52;100.00
46087;BME280;31824;49.648;8.640;2023-06-22T03:36:57;100314.56;;;20.51;100.00
46087;BME280;31824;49.648;8.640;2023-06-22T03:40:00;100304.97;;;20.55;100.00
46087;BME280;31824;49.648;8.640;2023-06-22T03:43:03;100304.19;;;20.57;100.00
46087;BME280;31824;49.648;8.640;2023-06-22T03:46:06;100302.03;;;20.83;100.00
46087;BME280;31824;49.648;8.640;2023-06-22T03:49:09;100301.19;;;20.68;100.00
46087;BME280;31824;49.648;8.640;2023-06-22T03:52:11;100307.88;;;20.43;100.00
46087;BME280;31824;49.648;8.640;2023-06-22T03:55:14;100310.41;;;20.08;100.00
46087;BME280;31824;49.648;8.640;2023-06-22T03:58:17;100295.19;;;20.06;100.00
46087;BME280;31824;49.648;8.640;2023-06-22T04:01:22;100319.38;;;20.09;100.00
46087;BME280;31824;49.648;8.640;2023-06-22T04:04:28;100311.69;;;20.15;100.00
46087;BME280;31824;49.648;8.640;2023-06-22T04:07:56;100330.84;;;20.08;100.00
46087;BME280;31824;49.648;8.640;2023-06-22T04:10:58;100336.13;;;20.23;100.00
46087;BME280;31824;49.648;8.640;2023-06-22T04:14:00;100338.72;;;20.21;100.00
46087;BME280;31824;49.648;8.640;2023-06-22T04:17:05;100341.16;;;20.50;100.00
46087;BME280;31824;49.648;8.640;2023-06-22T04:20:09;100332.94;;;20.78;100.00
46087;BME280;31824;49.648;8.640;2023-06-22T04:23:11;100324.72;;;20.58;100.00
46087;BME280;31824;49.648;8.640;2023-06-22T04:26:14;100318.41;;;20.40;100.00
46087;BME280;31824;49.648;8.640;2023-06-22T04:29:16;100316.41;;;20.36;100.00
46087;BME280;31824;49.648;8.640;2023-06-22T04:32:18;100320.22;;;20.24;100.00
46087;BME280;31824;49.648;8.640;2023-06-22T04:35:23;100325.16;;;20.50;100.00
46087;BME280;31824;49.648;8.640;2023-06-22T04:38:26;100317.66;;;20.76;100.00
46087;BME280;31824;49.648;8.640;2023-06-22T04:41:31;100316.56;;;20.39;100.00
46087;BME280;31824;49.648;8.640;2023-06-22T04:45:08;100314.94;;;20.42;100.00
46087;BME280;31824;49.648;8.640;2023-06-22T04:48:12;100313.81;;;20.37;100.00
46087;BME280;31824;49.648;8.640;2023-06-22T04:51:20;100314.78;;;20.23;100.00
46087;BME280;31824;49.648;8.640;2023-06-22T04:54:48;100313.88;;;20.22;100.00
46087;BME280;31824;49.648;8.640;2023-06-22T04:57:50;100308.78;;;20.27;100.00
46087;BME280;31824;49.648;8.640;2023-06-22T05:00:52;100314.19;;;20.29;100.00
46087;BME280;31824;49.648;8.640;2023-06-22T05:03:55;100307.88;;;20.43;100.00
46087;BME280;31824;49.648;8.640;2023-06-22T05:06:59;100303.66;;;20.47;100.00
46087;BME280;31824;49.648;8.640;2023-06-22T05:10:05;100298.03;;;20.58;100.00
46087;BME280;31824;49.648;8.640;2023-06-22T05:13:09;100298.84;;;20.57;100.00
46087;BME280;31824;49.648;8.640;2023-06-22T05:16:11;100290.63;;;20.53;100.00
46087;BME280;31824;49.648;8.640;2023-06-22T05:19:13;100283.63;;;20.71;100.00
46087;BME280;31824;49.648;8.640;2023-06-22T05:22:19;100279.31;;;20.91;100.00
46087;BME280;31824;49.648;8.640;2023-06-22T05:25:22;100274.16;;;20.95;100.00
46087;BME280;31824;49.648;8.640;2023-06-22T05:28:25;100265.06;;;20.91;100.00
46087;BME280;31824;49.648;8.640;2023-06-22T05:31:28;100265.22;;;20.94;100.00
46087;BME280;31824;49.648;8.640;2023-06-22T05:34:34;100271.41;;;20.93;100.00
46087;BME280;31824;49.648;8.640;2023-06-22T05:37:37;100274.03;;;21.10;100.00
46087;BME280;31824;49.648;8.640;2023-06-22T05:40:39;100282.06;;;21.28;100.00
46087;BME280;31824;49.648;8.640;2023-06-22T05:43:42;100273.56;;;21.36;100.00
46087;BME280;31824;49.648;8.640;2023-06-22T05:46:44;100270.47;;;21.45;100.00
46087;BME280;31824;49.648;8.640;2023-06-22T05:49:50;100272.38;;;21.48;100.00
46087;BME280;31824;49.648;8.640;2023-06-22T05:52:53;100266.19;;;21.49;100.00
46087;BME280;31824;49.648;8.640;2023-06-22T05:55:56;100265.56;;;21.53;100.00
46087;BME280;31824;49.648;8.640;2023-06-22T05:58:58;100278.97;;;21.72;100.00
46087;BME280;31824;49.648;8.640;2023-06-22T06:02:00;100272.75;;;21.91;100.00
46087;BME280;31824;49.648;8.640;2023-06-22T06:05:07;100279.13;;;22.13;100.00
46087;BME280;31824;49.648;8.640;2023-06-22T06:08:10;100261.72;;;22.03;100.00
46087;BME280;31824;49.648;8.640;2023-06-22T06:11:16;100265.47;;;22.26;100.00
46087;BME280;31824;49.648;8.640;2023-06-22T06:14:18;100274.66;;;22.14;100.00
46087;BME280;31824;49.648;8.640;2023-06-22T06:17:20;100252.94;;;22.45;100.00
46087;BME280;31824;49.648;8.640;2023-06-22T06:20:26;100256.28;;;22.59;100.00
46087;BME280;31824;49.648;8.640;2023-06-22T06:23:35;100240.31;;;23.03;100.00
46087;BME280;31824;49.648;8.640;2023-06-22T06:26:37;100237.72;;;23.25;100.00
46087;BME280;31824;49.648;8.640;2023-06-22T06:29:40;100258.63;;;23.34;100.00
46087;BME280;31824;49.648;8.640;2023-06-22T06:32:43;100241.59;;;23.55;100.00
46087;BME280;31824;49.648;8.640;2023-06-22T06:35:47;100252.44;;;23.58;100.00
46087;BME280;31824;49.648;8.640;2023-06-22T06:38:51;100247.22;;;23.61;100.00
46087;BME280;31824;49.648;8.640;2023-06-22T06:41:56;100226.69;;;23.62;100.00
46087;BME280;31824;49.648;8.640;2023-06-22T06:44:58;100223.38;;;23.69;100.00
46087;BME280;31824;49.648;8.640;2023-06-22T06:48:00;100227.94;;;23.92;100.00
46087;BME280;31824;49.648;8.640;2023-06-22T06:51:04;100232.03;;;24.07;100.00
46087;BME280;31824;49.648;8.640;2023-06-22T06:54:07;100229.56;;;24.36;100.00
46087;BME280;31824;49.648;8.640;2023-06-22T06:57:11;100215.91;;;24.30;100.00
46087;BME280;31824;49.648;8.640;2023-06-22T07:00:16;100211.66;;;24.36;100.00
46087;BME280;31824;49.648;8.640;2023-06-22T07:03:18;100208.75;;;24.54;100.00
46087;BME280;31824;49.648;8.640;2023-06-22T07:06:21;100212.47;;;24.58;100.00
46087;BME280;31824;49.648;8.640;2023-06-22T07:09:55;100222.06;;;24.75;100.00
46087;BME280;31824;49.648;8.640;2023-06-22T07:13:01;100217.94;;;24.61;100.00
46087;BME280;31824;49.648;8.640;2023-06-22T07:16:04;100217.41;;;24.70;100.00
46087;BME280;31824;49.648;8.640;2023-06-22T07:19:07;100214.59;;;24.92;100.00
46087;BME280;31824;49.648;8.640;2023-06-22T07:22:11;100213.41;;;24.84;100.00
46087;BME280;31824;49.648;8.640;2023-06-22T07:25:18;100204.53;;;24.87;100.00
46087;BME280;31824;49.648;8.640;2023-06-22T07:28:20;100200.34;;;24.95;100.00
46087;BME280;31824;49.648;8.640;2023-06-22T07:31:23;100198.34;;;25.15;100.00
46087;BME280;31824;49.648;8.640;2023-06-22T07:34:26;100190.63;;;25.26;100.00
46087;BME280;31824;49.648;8.640;2023-06-22T07:37:31;100197.72;;;25.24;100.00
46087;BME280;31824;49.648;8.640;2023-06-22T07:40:36;100194.13;;;25.23;100.00
46087;BME280;31824;49.648;8.640;2023-06-22T07:43:38;100194.44;;;25.33;100.00
46087;BME280;31824;49.648;8.640;2023-06-22T07:46:41;100202.94;;;25.45;100.00
46087;BME280;31824;49.648;8.640;2023-06-22T07:49:42;100207.72;;;25.55;100.00
46087;BME280;31824;49.648;8.640;2023-06-22T07:52:44;100208.66;;;25.56;100.00
46087;BME280;31824;49.648;8.640;2023-06-22T07:55:52;100210.53;;;25.31;100.00
46087;BME280;31824;49.648;8.640;2023-06-22T07:58:54;100220.09;;;25.49;100.00
46087;BME280;31824;49.648;8.640;2023-06-22T08:02:00;100212.44;;;25.63;100.00
46087;BME280;31824;49.648;8.640;2023-06-22T08:05:03;100203.88;;;25.74;100.00
46087;BME280;31824;49.648;8.640;2023-06-22T08:08:22;100209.38;;;25.79;100.00
46087;BME280;31824;49.648;8.640;2023-06-22T08:11:26;100208.72;;;25.88;100.00
46087;BME280;31824;49.648;8.640;2023-06-22T08:14:29;100204.16;;;25.85;100.00
46087;BME280;31824;49.648;8.640;2023-06-22T08:17:31;100204.59;;;25.70;100.00
46087;BME280;31824;49.648;8.640;2023-06-22T08:20:33;100191.31;;;25.75;100.00
46087;BME280;31824;49.648;8.640;2023-06-22T08:23:35;100182.91;;;25.94;100.00
46087;BME280;31824;49.648;8.640;2023-06-22T08:26:39;100175.47;;;26.15;100.00
46087;BME280;31824;49.648;8.640;2023-06-22T08:29:41;100174.59;;;26.48;100.00
46087;BME280;31824;49.648;8.640;2023-06-22T08:32:47;100173.66;;;26.45;100.00
46087;BME280;31824;49.648;8.640;2023-06-22T08:35:49;100174.63;;;26.49;100.00
46087;BME280;31824;49.648;8.640;2023-06-22T08:38:52;100184.38;;;26.44;100.00
46087;BME280;31824;49.648;8.640;2023-06-22T08:41:55;100188.81;;;26.74;100.00
46087;BME280;31824;49.648;8.640;2023-06-22T08:44:57;100177.84;;;26.69;100.00
46087;BME280;31824;49.648;8.640;2023-06-22T08:48:01;100169.78;;;26.69;100.00
46087;BME280;31824;49.648;8.640;2023-06-22T08:51:04;100165.81;;;26.88;100.00
46087;BME280;31824;49.648;8.640;2023-06-22T08:54:07;100169.59;;;27.32;100.00
46087;BME280;31824;49.648;8.640;2023-06-22T08:57:42;100166.44;;;27.50;100.00
46087;BME280;31824;49.648;8.640;2023-06-22T09:00:45;100162.59;;;27.38;100.00
46087;BME280;31824;49.648;8.640;2023-06-22T09:03:48;100159.94;;;27.41;100.00
46087;BME280;31824;49.648;8.640;2023-06-22T09:07:23;100154.97;;;27.22;100.00
46087;BME280;31824;49.648;8.640;2023-06-22T09:10:26;100153.34;;;27.28;100.00
46087;BME280;31824;49.648;8.640;2023-06-22T09:13:32;100154.38;;;27.73;100.00
46087;BME280;31824;49.648;8.640;2023-06-22T09:16:35;100146.22;;;27.70;100.00
46087;BME280;31824;49.648;8.640;2023-06-22T09:19:37;100145.84;;;27.96;100.00
46087;BME280;31824;49.648;8.640;2023-06-22T09:22:39;100149.09;;;27.79;100.00
46087;BME280;31824;49.648;8.640;2023-06-22T09:25:42;100146.75;;;27.54;100.00
46087;BME280;31824;49.648;8.640;2023-06-22T09:29:14;100150.25;;;27.50;100.00
46087;BME280;31824;49.648;8.640;2023-06-22T09:32:17;100150.66;;;27.68;100.00
46087;BME280;31824;49.648;8.640;2023-06-22T09:35:44;100138.56;;;27.92;100.00
46087;BME280;31824;49.648;8.640;2023-06-22T09:38:48;100130.00;;;28.11;100.00
46087;BME280;31824;49.648;8.640;2023-06-22T09:42:00;100129.47;;;28.29;100.00
46087;BME280;31824;49.648;8.640;2023-06-22T09:45:06;100121.72;;;28.50;100.00
46087;BME280;31824;49.648;8.640;2023-06-22T09:48:13;100119.22;;;28.60;100.00
46087;BME280;31824;49.648;8.640;2023-06-22T09:51:16;100107.13;;;28.38;100.00
46087;BME280;31824;49.648;8.640;2023-06-22T09:54:19;100112.47;;;28.86;100.00
46087;BME280;31824;49.648;8.640;2023-06-22T09:57:21;100098.09;;;28.88;100.00
46087;BME280;31824;49.648;8.640;2023-06-22T10:00:25;100090.81;;;28.84;100.00
46087;BME280;31824;49.648;8.640;2023-06-22T10:03:31;100084.16;;;29.20;100.00
46087;BME280;31824;49.648;8.640;2023-06-22T10:06:34;100069.13;;;29.39;100.00
46087;BME280;31824;49.648;8.640;2023-06-22T10:09:36;100054.94;;;29.59;100.00
46087;BME280;31824;49.648;8.640;2023-06-22T10:12:46;100045.81;;;29.51;100.00
46087;BME280;31824;49.648;8.640;2023-06-22T10:16:14;100043.63;;;29.89;100.00
46087;BME280;31824;49.648;8.640;2023-06-22T10:19:18;100047.38;;;30.02;100.00
46087;BME280;31824;49.648;8.640;2023-06-22T10:22:20;100037.06;;;29.72;100.00
46087;BME280;31824;49.648;8.640;2023-06-22T10:25:26;100030.03;;;29.88;100.00
46087;BME280;31824;49.648;8.640;2023-06-22T10:28:29;100039.47;;;30.27;100.00
46087;BME280;31824;49.648;8.640;2023-06-22T10:32:18;100026.97;;;30.41;100.00
46087;BME280;31824;49.648;8.640;2023-06-22T10:35:45;100035.88;;;30.25;100.00
46087;BME280;31824;49.648;8.640;2023-06-22T10:38:49;100039.56;;;30.35;100.00
46087;BME280;31824;49.648;8.640;2023-06-22T10:41:53;100022.41;;;30.37;100.00
46087;BME280;31824;49.648;8.640;2023-06-22T10:44:55;100013.25;;;30.24;100.00
46087;BME280;31824;49.648;8.640;2023-06-22T10:47:58;100002.28;;;30.09;100.00
46087;BME280;31824;49.648;8.640;2023-06-22T10:51:01;99998.81;;;30.27;100.00
46087;BME280;31824;49.648;8.640;2023-06-22T10:54:03;99987.00;;;30.17;100.00
46087;BME280;31824;49.648;8.640;2023-06-22T10:57:06;99995.69;;;30.80;100.00
46087;BME280;31824;49.648;8.640;2023-06-22T11:00:09;99996.84;;;31.26;100.00
46087;BME280;31824;49.648;8.640;2023-06-22T11:03:14;99984.13;;;31.11;100.00
46087;BME280;31824;49.648;8.640;2023-06-22T11:06:16;99972.38;;;31.12;100.00
46087;BME280;31824;49.648;8.640;2023-06-22T11:09:20;99977.16;;;31.70;100.00
46087;BME280;31824;49.648;8.640;2023-06-22T11:12:55;99978.81;;;31.33;100.00
46087;BME280;31824;49.648;8.640;2023-06-22T11:15:59;99976.09;;;31.36;100.00
46087;BME280;31824;49.648;8.640;2023-06-22T11:19:05;99981.66;;;31.63;100.00
46087;BME280;31824;49.648;8.640;2023-06-22T11:22:07;99972.38;;;31.18;100.00
46087;BME280;31824;49.648;8.640;2023-06-22T11:25:09;99971.28;;;30.87;100.00
46087;BME280;31824;49.648;8.640;2023-06-22T11:28:13;99979.50;;;31.01;100.00
46087;BME280;31824;49.648;8.640;2023-06-22T11:31:16;99979.69;;;31.31;100.00
46087;BME280;31824;49.648;8.640;2023-06-22T11:34:28;99978.88;;;31.51;100.00
46087;BME280;31824;49.648;8.640;2023-06-22T11:37:56;99973.41;;;31.48;100.00
46087;BME280;31824;49.648;8.640;2023-06-22T11:40:59;99967.16;;;31.60;100.00
46087;BME280;31824;49.648;8.640;2023-06-22T11:44:02;99961.69;;;31.58;100.00
46087;BME280;31824;49.648;8.640;2023-06-22T11:47:06;99962.69;;;31.79;100.00
46087;BME280;31824;49.648;8.640;2023-06-22T11:50:13;99963.59;;;31.87;100.00
46087;BME280;31824;49.648;8.640;2023-06-22T11:53:15;99961.69;;;31.55;100.00
46087;BME280;31824;49.648;8.640;2023-06-22T11:56:20;99967.13;;;31.55;100.00
46087;BME280;31824;49.648;8.640;2023-06-22T11:59:47;99964.38;;;31.52;100.00
46087;BME280;31824;49.648;8.640;2023-06-22T12:02:50;99961.59;;;31.27;100.00
46087;BME280;31824;49.648;8.640;2023-06-22T12:05:57;99971.53;;;31.28;100.00
46087;BME280;31824;49.648;8.640;2023-06-22T12:08:59;99967.00;;;31.30;100.00
46087;BME280;31824;49.648;8.640;2023-06-22T12:12:02;99959.84;;;31.45;100.00
46087;BME280;31824;49.648;8.640;2023-06-22T12:15:05;99955.41;;;31.62;100.00
46087;BME280;31824;49.648;8.640;2023-06-22T12:18:07;99959.97;;;31.80;100.00
46087;BME280;31824;49.648;8.640;2023-06-22T12:21:17;99949.97;;;31.61;100.00
46087;BME280;31824;49.648;8.640;2023-06-22T12:24:19;99945.34;;;31.40;100.00
46087;BME280;31824;49.648;8.640;2023-06-22T12:27:21;99943.50;;;31.29;100.00
46087;BME280;31824;49.648;8.640;2023-06-22T12:30:23;99939.03;;;31.45;100.00
46087;BME280;31824;49.648;8.640;2023-06-22T12:33:29;99950.75;;;31.37;100.00
46087;BME280;31824;49.648;8.640;2023-06-22T12:36:34;99943.56;;;31.42;100.00
46087;BME280;31824;49.648;8.640;2023-06-22T12:39:40;99954.53;;;31.76;100.00
46087;BME280;31824;49.648;8.640;2023-06-22T12:42:42;99962.72;;;32.01;100.00
46087;BME280;31824;49.648;8.640;2023-06-22T12:45:44;99962.75;;;32.30;100.00
46087;BME280;31824;49.648;8.640;2023-06-22T12:48:49;99952.78;;;32.40;100.00
46087;BME280;31824;49.648;8.640;2023-06-22T12:51:56;99955.50;;;32.32;100.00
46087;BME280;31824;49.648;8.640;2023-06-22T12:54:59;99970.00;;;32.15;100.00
46087;BME280;31824;49.648;8.640;2023-06-22T12:58:01;99959.13;;;32.48;100.00
46087;BME280;31824;49.648;8.640;2023-06-22T13:01:03;99960.03;;;32.16;100.00
46087;BME280;31824;49.648;8.640;2023-06-22T13:04:32;99968.19;;;32.35;100.00
46087;BME280;31824;49.648;8.640;2023-06-22T13:07:37;99962.72;;;32.13;100.00
46087;BME280;31824;49.648;8.640;2023-06-22T13:10:40;99949.16;;;32.47;100.00
46087;BME280;31824;49.648;8.640;2023-06-22T13:13:44;99946.41;;;32.75;100.00
46087;BME280;31824;49.648;8.640;2023-06-22T13:16:46;99943.69;;;32.79;100.00
46087;BME280;31824;49.648;8.640;2023-06-22T13:19:49;99941.88;;;32.57;100.00
46087;BME280;31824;49.648;8.640;2023-06-22T13:22:54;99948.22;;;32.79;100.00
46087;BME280;31824;49.648;8.640;2023-06-22T13:25:58;99950.88;;;33.04;100.00
46087;BME280;31824;49.648;8.640;2023-06-22T13:29:00;99947.31;;;32.83;100.00
46087;BME280;31824;49.648;8.640;2023-06-22T13:32:02;99952.59;;;33.23;100.00
46087;BME280;31824;49.648;8.640;2023-06-22T13:35:05;99947.16;;;33.31;100.00
46087;BME280;31824;49.648;8.640;2023-06-22T13:38:10;99942.66;;;33.11;100.00
46087;BME280;31824;49.648;8.640;2023-06-22T13:41:12;99940.84;;;33.16;100.00
46087;BME280;31824;49.648;8.640;2023-06-22T13:44:15;99941.66;;;33.43;100.00
46087;BME280;31824;49.648;8.640;2023-06-22T13:47:19;99930.56;;;33.76;100.00
46087;BME280;31824;49.648;8.640;2023-06-22T13:50:22;99911.72;;;33.42;100.00
46087;BME280;31824;49.648;8.640;2023-06-22T13:53:26;99911.44;;;33.88;100.00
46087;BME280;31824;49.648;8.640;2023-06-22T13:56:29;99894.16;;;33.88;100.00
46087;BME280;31824;49.648;8.640;2023-06-22T13:59:31;99885.38;;;33.44;100.00
46087;BME280;31824;49.648;8.640;2023-06-22T14:02:34;99874.25;;;33.82;100.00
46087;BME280;31824;49.648;8.640;2023-06-22T14:05:45;99875.00;;;33.97;100.00
46087;BME280;31824;49.648;8.640;2023-06-22T14:08:48;99862.81;;;33.17;100.00
46087;BME280;31824;49.648;8.640;2023-06-22T14:11:54;99854.50;;;33.45;100.00
46087;BME280;31824;49.648;8.640;2023-06-22T14:14:56;99851.13;;;32.98;100.00
46087;BME280;31824;49.648;8.640;2023-06-22T14:18:24;99838.63;;;32.24;100.00
46087;BME280;31824;49.648;8.640;2023-06-22T14:21:26;99845.88;;;31.91;100.00
46087;BME280;31824;49.648;8.640;2023-06-22T14:24:30;99835.94;;;31.75;100.00
46087;BME280;31824;49.648;8.640;2023-06-22T14:27:33;99836.84;;;31.68;100.00
46087;BME280;31824;49.648;8.640;2023-06-22T14:30:35;99825.91;;;31.49;100.00
46087;BME280;31824;49.648;8.640;2023-06-22T14:33:38;99827.72;;;31.39;100.00
46087;BME280;31824;49.648;8.640;2023-06-22T14:36:40;99843.97;;;31.24;100.00
46087;BME280;31824;49.648;8.640;2023-06-22T14:39:44;99847.59;;;31.21;100.00
46087;BME280;31824;49.648;8.640;2023-06-22T14:42:46;99852.06;;;31.04;100.00
46087;BME280;31824;49.648;8.640;2023-06-22T14:45:49;99848.47;;;31.08;100.00
46087;BME280;31824;49.648;8.640;2023-06-22T14:48:57;99838.50;;;31.07;100.00
46087;BME280;31824;49.648;8.640;2023-06-22T14:51:59;99834.03;;;31.32;100.00
46087;BME280;31824;49.648;8.640;2023-06-22T14:55:03;99827.75;;;31.50;100.00
46087;BME280;31824;49.648;8.640;2023-06-22T14:58:06;99834.06;;;31.47;100.00
46087;BME280;31824;49.648;8.640;2023-06-22T15:01:08;99832.25;;;31.59;100.00
46087;BME280;31824;49.648;8.640;2023-06-22T15:04:11;99829.53;;;31.43;100.00
46087;BME280;31824;49.648;8.640;2023-06-22T15:07:39;99818.69;;;31.56;100.00
46087;BME280;31824;49.648;8.640;2023-06-22T15:10:43;99798.75;;;31.40;100.00
46087;BME280;31824;49.648;8.640;2023-06-22T15:13:45;99777.00;;;31.06;100.00
46087;BME280;31824;49.648;8.640;2023-06-22T15:16:51;99765.19;;;30.97;100.00
46087;BME280;31824;49.648;8.640;2023-06-22T15:19:59;99758.94;;;31.08;100.00
46087;BME280;31824;49.648;8.640;2023-06-22T15:23:02;99774.31;;;31.32;100.00
46087;BME280;31824;49.648;8.640;2023-06-22T15:26:06;99779.75;;;31.32;100.00
46087;BME280;31824;49.648;8.640;2023-06-22T15:29:08;99782.47;;;31.51;100.00
46087;BME280;31824;49.648;8.640;2023-06-22T15:32:13;99789.75;;;31.62;100.00
46087;BME280;31824;49.648;8.640;2023-06-22T15:35:16;99796.97;;;31.73;100.00
46087;BME280;31824;49.648;8.640;2023-06-22T15:38:21;99786.13;;;31.76;100.00
46087;BME280;31824;49.648;8.640;2023-06-22T15:41:25;99786.13;;;31.70;100.00
46087;BME280;31824;49.648;8.640;2023-06-22T15:44:31;99777.00;;;31.18;100.00
46087;BME280;31824;49.648;8.640;2023-06-22T15:47:34;99784.16;;;30.82;100.00
46087;BME280;31824;49.648;8.640;2023-06-22T15:51:03;99794.91;;;30.63;100.00
46087;BME280;31824;49.648;8.640;2023-06-22T15:54:07;99780.38;;;30.46;100.00
46087;BME280;31824;49.648;8.640;2023-06-22T15:57:11;99783.91;;;30.36;100.00
46087;BME280;31824;49.648;8.640;2023-06-22T16:00:41;99788.41;;;30.32;100.00
46087;BME280;31824;49.648;8.640;2023-06-22T16:03:43;99798.31;;;30.25;100.00